createdAt,value
2022-12-11T00:00:40.801Z,27.90
2022-12-11T00:03:12.738Z,27.50
2022-12-11T00:05:42.411Z,27.25
2022-12-11T00:08:08.974Z,28.25
2022-12-11T00:10:38.022Z,29.38
2022-12-11T00:13:05.240Z,27.85
2022-12-11T00:15:32.124Z,32.47
2022-12-11T00:17:58.759Z,29.30
2022-12-11T00:20:25.409Z,27.30
2022-12-11T00:22:51.911Z,28.73
2022-12-11T00:25:18.573Z,29.95
2022-12-11T00:27:46.252Z,35.95
2022-12-11T00:30:13.813Z,32.92
2022-12-11T00:32:40.358Z,32.00
2022-12-11T00:35:07.262Z,33.83
2022-12-11T00:37:33.985Z,35.92
2022-12-11T00:40:00.572Z,32.03
2022-12-11T00:42:27.084Z,31.65
2022-12-11T00:44:53.609Z,30.05
2022-12-11T00:47:20.241Z,33.28
2022-12-11T00:49:50.010Z,26.92
2022-12-11T00:52:17.244Z,28.20
2022-12-11T00:54:43.745Z,27.95
2022-12-11T00:57:10.320Z,23.80
2022-12-11T00:59:36.888Z,28.02
2022-12-11T01:02:03.458Z,23.10
2022-12-11T01:04:30.007Z,24.20
2022-12-11T01:06:56.521Z,28.13
2022-12-11T01:09:23.196Z,24.55
2022-12-11T01:11:49.973Z,23.05
2022-12-11T01:14:16.577Z,27.38
2022-12-11T01:16:43.152Z,27.83
2022-12-11T01:19:09.729Z,28.48
2022-12-11T01:21:36.350Z,29.70
2022-12-11T01:24:02.884Z,23.17
2022-12-11T01:26:29.509Z,26.95
2022-12-11T01:28:56.038Z,24.38
2022-12-11T01:31:23.086Z,28.02
2022-12-11T01:33:49.764Z,26.50
2022-12-11T01:36:21.734Z,27.40
2022-12-11T01:38:49.271Z,24.38
2022-12-11T01:41:17.217Z,29.73
2022-12-11T01:44:02.721Z,27.42
2022-12-11T01:46:30.512Z,20.05
2022-12-11T01:48:58.339Z,25.05
2022-12-11T01:51:24.932Z,30.58
2022-12-11T01:54:00.623Z,27.02
2022-12-11T01:56:31.062Z,33.22
2022-12-11T01:59:01.642Z,28.52
2022-12-11T02:01:35.026Z,28.92
2022-12-11T02:04:02.333Z,28.92
2022-12-11T02:06:38.084Z,22.73
2022-12-11T02:09:12.001Z,24.08
2022-12-11T02:11:47.614Z,28.08
2022-12-11T02:14:37.149Z,23.67
2022-12-11T02:17:36.004Z,25.42
2022-12-11T02:20:17.881Z,23.92
2022-12-11T02:23:06.734Z,21.65
2022-12-11T02:25:54.359Z,23.20
2022-12-11T02:28:30.106Z,22.25
2022-12-11T02:31:18.956Z,28.58
2022-12-11T02:33:54.976Z,24.02
2022-12-11T02:36:24.919Z,26.20
2022-12-11T02:38:54.558Z,21.02
2022-12-11T02:41:23.445Z,21.52
2022-12-11T02:43:52.521Z,21.25
2022-12-11T02:46:21.628Z,29.75
2022-12-11T02:48:51.102Z,26.65
2022-12-11T02:51:23.742Z,22.40
2022-12-11T02:53:54.756Z,24.90
2022-12-11T02:56:26.817Z,25.52
2022-12-11T02:59:01.729Z,27.30
2022-12-11T03:01:29.273Z,20.90
2022-12-11T03:03:57.605Z,26.27
2022-12-11T03:06:31.083Z,28.50
2022-12-11T03:08:57.721Z,25.60
2022-12-11T03:11:30.483Z,22.50
2022-12-11T03:14:01.142Z,23.90
2022-12-11T03:16:38.657Z,24.83
2022-12-11T03:19:21.482Z,18.85
2022-12-11T03:22:03.276Z,21.38
2022-12-11T03:24:38.717Z,21.00
2022-12-11T03:27:23.123Z,20.48
2022-12-11T03:30:15.697Z,23.05
2022-12-11T03:32:50.456Z,21.85
2022-12-11T03:35:52.156Z,21.70
2022-12-11T03:38:36.365Z,18.40
2022-12-11T03:41:05.431Z,23.02
2022-12-11T03:43:33.145Z,19.90
2022-12-11T03:46:01.495Z,22.35
2022-12-11T03:48:32.741Z,21.08
2022-12-11T03:51:02.137Z,20.80
2022-12-11T03:53:28.826Z,20.30
2022-12-11T03:55:59.108Z,18.98
2022-12-11T03:58:25.719Z,21.55
2022-12-11T04:00:52.404Z,24.50
2022-12-11T04:03:18.940Z,18.88
2022-12-11T04:05:48.445Z,19.25
2022-12-11T04:08:16.018Z,19.75
2022-12-11T04:10:43.133Z,18.30
2022-12-11T04:13:10.465Z,18.53
2022-12-11T04:15:37.942Z,14.35
2022-12-11T04:18:05.781Z,19.17
2022-12-11T04:20:32.308Z,18.58
2022-12-11T04:22:58.966Z,19.17
2022-12-11T04:25:25.530Z,18.70
2022-12-11T04:27:52.092Z,16.00
2022-12-11T04:30:22.497Z,18.75
2022-12-11T04:32:50.027Z,18.30
2022-12-11T04:35:16.990Z,15.27
2022-12-11T04:37:43.936Z,16.13
2022-12-11T04:40:14.174Z,21.02
2022-12-11T04:42:41.331Z,18.60
2022-12-11T04:45:09.342Z,18.85
2022-12-11T04:47:37.932Z,18.77
2022-12-11T04:50:06.520Z,17.67
2022-12-11T04:52:33.633Z,16.73
2022-12-11T04:55:00.251Z,15.93
2022-12-11T04:57:26.793Z,16.25
2022-12-11T04:59:53.298Z,14.10
2022-12-11T05:02:19.940Z,17.73
2022-12-11T05:04:46.665Z,17.42
2022-12-11T05:07:13.411Z,14.20
2022-12-11T05:09:40.069Z,13.75
2022-12-11T05:12:06.697Z,16.17
2022-12-11T05:14:33.296Z,14.32
2022-12-11T05:17:00.011Z,13.98
2022-12-11T05:19:27.043Z,13.05
2022-12-11T05:21:53.946Z,13.50
2022-12-11T05:24:20.695Z,13.70
2022-12-11T05:26:47.193Z,12.95
2022-12-11T05:29:13.737Z,19.65
2022-12-11T05:31:40.635Z,14.85
2022-12-11T05:34:07.299Z,15.73
2022-12-11T05:36:34.387Z,12.68
2022-12-11T05:39:01.944Z,15.80
2022-12-11T05:41:30.535Z,14.98
2022-12-11T05:43:57.158Z,12.30
2022-12-11T05:46:26.364Z,14.27
2022-12-11T05:48:55.975Z,12.07
2022-12-11T05:51:23.493Z,14.55
2022-12-11T05:53:51.900Z,11.32
2022-12-11T05:56:30.124Z,11.68
2022-12-11T05:58:57.080Z,12.82
2022-12-11T06:01:30.413Z,12.70
2022-12-11T06:03:57.931Z,12.27
2022-12-11T06:06:25.470Z,15.65
2022-12-11T06:08:53.748Z,14.75
2022-12-11T06:11:24.164Z,13.85
2022-12-11T06:13:52.091Z,12.25
2022-12-11T06:16:19.432Z,17.30
2022-12-11T06:18:46.044Z,15.45
2022-12-11T06:21:13.709Z,15.60
2022-12-11T06:23:41.101Z,14.27
2022-12-11T06:26:08.190Z,16.98
2022-12-11T06:28:34.742Z,15.07
2022-12-11T06:31:02.068Z,19.90
2022-12-11T06:33:28.841Z,16.08
2022-12-11T06:35:55.375Z,19.15
2022-12-11T06:38:21.834Z,14.50
2022-12-11T06:40:58.710Z,20.98
2022-12-11T06:43:25.772Z,15.98
2022-12-11T06:45:52.717Z,21.30
2022-12-11T06:48:20.400Z,13.68
2022-12-11T06:50:47.073Z,14.45
2022-12-11T06:53:14.736Z,14.93
2022-12-11T06:55:42.041Z,12.93
2022-12-11T06:58:09.725Z,13.52
2022-12-11T07:00:36.751Z,13.23
2022-12-11T07:03:04.651Z,12.83
2022-12-11T07:05:32.509Z,11.77
2022-12-11T07:07:59.342Z,13.25
2022-12-11T07:10:26.040Z,10.57
2022-12-11T07:12:53.059Z,10.95
2022-12-11T07:15:19.565Z,14.60
2022-12-11T07:17:46.125Z,11.88
2022-12-11T07:20:12.872Z,13.38
2022-12-11T07:22:46.027Z,10.63
2022-12-11T07:25:13.482Z,12.40
2022-12-11T07:27:40.104Z,15.45
2022-12-11T07:30:07.397Z,10.45
2022-12-11T07:32:33.969Z,14.43
2022-12-11T07:35:00.554Z,12.57
2022-12-11T07:37:27.171Z,12.13
2022-12-11T07:39:53.677Z,15.25
2022-12-11T07:42:20.236Z,15.70
2022-12-11T07:44:46.780Z,14.23
2022-12-11T07:47:13.321Z,12.32
2022-12-11T07:49:39.837Z,18.35
2022-12-11T07:52:06.343Z,14.77
2022-12-11T07:54:32.961Z,16.50
2022-12-11T07:56:59.458Z,13.70
2022-12-11T07:59:25.934Z,16.13
2022-12-11T08:01:52.407Z,16.02
2022-12-11T08:04:18.979Z,18.77
2022-12-11T08:06:45.454Z,16.83
2022-12-11T08:09:19.094Z,18.45
2022-12-11T08:11:49.930Z,15.27
2022-12-11T08:14:16.615Z,16.48
2022-12-11T08:16:43.276Z,18.58
2022-12-11T08:19:13.526Z,17.75
2022-12-11T08:21:43.148Z,21.02
2022-12-11T08:24:10.298Z,25.40
2022-12-11T08:26:36.943Z,18.27
2022-12-11T08:29:03.964Z,17.27
2022-12-11T08:31:32.766Z,18.15
2022-12-11T08:33:59.444Z,18.52
2022-12-11T08:36:26.159Z,17.90
2022-12-11T08:38:55.123Z,19.42
2022-12-11T08:41:24.565Z,19.98
2022-12-11T08:43:51.526Z,20.48
2022-12-11T08:46:18.088Z,20.33
2022-12-11T08:48:44.562Z,19.83
2022-12-11T08:51:14.040Z,17.77
2022-12-11T08:53:40.644Z,17.48
2022-12-11T08:56:10.472Z,17.20
2022-12-11T08:58:37.700Z,19.10
2022-12-11T09:01:12.066Z,20.43
2022-12-11T09:03:40.239Z,20.20
2022-12-11T09:06:08.409Z,17.15
2022-12-11T09:11:06.550Z,18.42
2022-12-11T09:13:36.718Z,17.63
2022-12-11T09:16:13.019Z,19.08
2022-12-11T09:18:40.235Z,15.38
2022-12-11T09:21:09.824Z,18.73
2022-12-11T09:23:36.781Z,18.38
2022-12-11T09:26:08.373Z,21.40
2022-12-11T09:28:34.966Z,16.70
2022-12-11T09:31:01.593Z,16.63
2022-12-11T09:33:28.118Z,19.13
2022-12-11T09:36:02.710Z,18.17
2022-12-11T09:38:29.791Z,19.45
2022-12-11T09:40:56.785Z,14.98
2022-12-11T09:43:42.121Z,20.20
2022-12-11T09:46:15.271Z,14.73
2022-12-11T09:48:46.096Z,21.65
2022-12-11T09:51:28.525Z,17.67
2022-12-11T09:53:59.527Z,17.67
2022-12-11T09:56:39.731Z,17.52
2022-12-11T09:59:23.749Z,18.65
2022-12-11T10:02:02.259Z,20.20
2022-12-11T10:04:56.313Z,20.60
2022-12-11T10:07:37.924Z,13.75
2022-12-11T10:10:19.343Z,15.27
2022-12-11T10:13:12.990Z,19.73
2022-12-11T10:16:04.728Z,16.45
2022-12-11T10:18:33.748Z,17.80
2022-12-11T10:21:02.393Z,17.20
2022-12-11T10:23:38.188Z,18.70
2022-12-11T10:26:11.060Z,15.52
2022-12-11T10:28:37.897Z,16.70
2022-12-11T10:31:14.400Z,16.25
2022-12-11T10:33:56.351Z,19.08
2022-12-11T10:36:35.581Z,18.15
2022-12-11T10:39:10.929Z,17.23
2022-12-11T10:41:39.467Z,14.32
2022-12-11T10:44:16.391Z,14.60
2022-12-11T10:46:43.154Z,16.97
2022-12-11T10:49:23.554Z,14.80
2022-12-11T10:51:54.967Z,13.25
2022-12-11T10:54:24.230Z,15.27
2022-12-11T10:56:50.981Z,16.05
2022-12-11T10:59:46.905Z,16.50
2022-12-11T11:02:23.601Z,13.55
2022-12-11T11:04:51.331Z,13.98
2022-12-11T11:07:24.322Z,11.20
2022-12-11T11:10:04.223Z,18.23
2022-12-11T11:12:36.543Z,16.67
2022-12-11T11:15:11.437Z,12.35
2022-12-11T11:17:54.865Z,11.63
2022-12-11T11:20:28.492Z,9.85
2022-12-11T11:22:57.557Z,12.20
2022-12-11T11:25:30.821Z,13.80
2022-12-11T11:28:18.939Z,10.45
2022-12-11T11:30:58.533Z,12.25
2022-12-11T11:33:25.696Z,11.00
2022-12-11T11:35:54.470Z,11.00
2022-12-11T11:39:02.555Z,10.48
2022-12-11T11:42:07.689Z,10.75
2022-12-11T11:44:42.650Z,11.85
2022-12-11T11:47:17.198Z,9.75
2022-12-11T11:49:59.958Z,14.93
2022-12-11T11:52:36.334Z,29.55
2022-12-11T11:55:32.523Z,12.45
2022-12-11T11:58:22.857Z,12.93
2022-12-11T12:00:53.185Z,11.20
2022-12-11T12:03:23.032Z,13.38
2022-12-11T12:06:14.917Z,12.38
2022-12-11T12:08:51.752Z,12.50
2022-12-11T12:11:39.932Z,13.05
2022-12-11T12:17:38.503Z,11.02
2022-12-11T12:20:41.512Z,12.48
2022-12-11T12:23:29.668Z,10.05
2022-12-11T12:26:15.002Z,12.15
2022-12-11T12:29:10.159Z,12.70
2022-12-11T12:31:43.810Z,12.95
2022-12-11T12:34:16.713Z,11.27
2022-12-11T12:37:09.688Z,11.90
2022-12-11T12:40:00.653Z,10.90
2022-12-11T12:43:03.799Z,12.45
2022-12-11T12:45:50.144Z,13.57
2022-12-11T12:48:17.058Z,11.48
2022-12-11T12:50:48.491Z,9.38
2022-12-11T12:53:25.208Z,11.38
2022-12-11T12:55:52.941Z,12.23
2022-12-11T12:58:26.372Z,9.70
2022-12-11T13:00:53.154Z,10.48
2022-12-11T13:03:25.079Z,12.80
2022-12-11T13:05:58.415Z,6.43
2022-12-11T13:08:34.626Z,11.68
2022-12-11T13:11:08.998Z,11.02
2022-12-11T13:13:39.464Z,8.13
2022-12-11T13:16:16.360Z,11.68
2022-12-11T13:18:48.808Z,15.18
2022-12-11T13:21:36.714Z,14.70
2022-12-11T13:24:21.427Z,10.05
2022-12-11T13:26:49.690Z,11.50
2022-12-11T13:29:29.476Z,10.50
2022-12-11T13:31:59.390Z,11.95
2022-12-11T13:34:31.764Z,12.93
2022-12-11T13:36:58.698Z,13.35
2022-12-11T13:39:27.420Z,13.77
2022-12-11T13:41:57.972Z,11.85
2022-12-11T13:44:28.245Z,10.27
2022-12-11T13:46:57.959Z,11.07
2022-12-11T13:49:28.799Z,10.60
2022-12-11T13:51:58.869Z,9.52
2022-12-11T13:54:27.649Z,8.52
2022-12-11T13:56:55.739Z,6.78
2022-12-11T14:01:58.132Z,11.20
2022-12-11T14:04:25.612Z,10.05
2022-12-11T14:06:52.216Z,7.88
2022-12-11T14:09:23.232Z,8.48
2022-12-11T14:11:56.444Z,9.27
2022-12-11T14:14:41.947Z,10.25
2022-12-11T14:17:15.459Z,9.20
2022-12-11T14:19:47.665Z,9.10
2022-12-11T14:22:20.789Z,5.93
2022-12-11T14:24:52.241Z,8.82
2022-12-11T14:27:20.216Z,9.98
2022-12-11T14:32:22.088Z,10.75
2022-12-11T14:34:50.347Z,9.10
2022-12-11T14:37:20.118Z,8.30
2022-12-11T14:39:58.674Z,10.13
2022-12-11T14:42:29.849Z,11.18
2022-12-11T14:45:02.295Z,10.27
2022-12-11T14:47:37.015Z,10.45
2022-12-11T14:50:10.281Z,10.82
2022-12-11T14:52:41.841Z,10.25
2022-12-11T14:55:28.463Z,12.48
2022-12-11T14:57:59.094Z,11.32
2022-12-11T15:00:32.988Z,16.83
2022-12-11T15:03:20.337Z,12.73
2022-12-11T15:05:54.917Z,10.85
2022-12-11T15:08:27.489Z,10.27
2022-12-11T15:11:08.692Z,9.88
2022-12-11T15:13:38.829Z,17.17
2022-12-11T15:16:07.514Z,14.23
2022-12-11T15:18:40.481Z,10.82
2022-12-11T15:21:10.997Z,9.63
2022-12-11T15:23:52.759Z,11.18
2022-12-11T15:26:40.074Z,15.32
2022-12-11T15:29:25.079Z,13.43
2022-12-11T15:32:09.592Z,10.75
2022-12-11T15:34:50.274Z,12.23
2022-12-11T15:37:25.074Z,10.70
2022-12-11T15:39:53.525Z,11.55
2022-12-11T15:42:37.354Z,10.73
2022-12-11T15:45:07.979Z,16.05
2022-12-11T15:47:34.616Z,12.88
2022-12-11T15:50:25.553Z,13.50
2022-12-11T15:52:54.309Z,12.80
2022-12-11T15:55:22.430Z,14.25
2022-12-11T16:00:26.358Z,12.93
2022-12-11T16:02:52.920Z,15.82
2022-12-11T16:05:20.498Z,16.83
2022-12-11T16:07:48.019Z,17.27
2022-12-11T16:10:18.058Z,17.00
2022-12-11T16:12:45.328Z,23.27
2022-12-11T16:15:21.436Z,14.60
2022-12-11T16:17:49.843Z,18.08
2022-12-11T16:20:17.421Z,18.58
2022-12-11T16:22:43.957Z,17.67
2022-12-11T16:25:11.202Z,22.00
2022-12-11T16:27:37.857Z,20.23
2022-12-11T16:30:04.845Z,18.60
2022-12-11T16:32:32.807Z,18.92
2022-12-11T16:34:59.467Z,15.95
2022-12-11T16:37:26.181Z,22.73
2022-12-11T16:39:52.798Z,15.20
2022-12-11T16:42:19.421Z,14.48
2022-12-11T16:44:46.921Z,16.73
2022-12-11T16:47:13.548Z,19.15
2022-12-11T16:49:40.287Z,15.75
2022-12-11T16:52:06.795Z,16.92
2022-12-11T16:54:33.469Z,17.95
2022-12-11T16:57:00.246Z,15.82
2022-12-11T16:59:27.222Z,17.25
2022-12-11T17:01:55.574Z,13.60
2022-12-11T17:04:22.095Z,15.27
2022-12-11T17:06:48.696Z,25.85
2022-12-11T17:09:15.304Z,17.08
2022-12-11T17:11:41.809Z,19.52
2022-12-11T17:14:09.895Z,17.10
2022-12-11T17:16:36.394Z,17.27
2022-12-11T17:19:02.952Z,17.00
2022-12-11T17:21:29.445Z,19.33
2022-12-11T17:23:56.037Z,18.80
2022-12-11T17:26:22.591Z,18.30
2022-12-11T17:28:49.099Z,20.67
2022-12-11T17:31:18.619Z,21.23
2022-12-11T17:33:46.721Z,19.45
2022-12-11T17:38:44.967Z,15.90
2022-12-11T17:41:18.543Z,21.40
2022-12-11T17:43:51.545Z,17.98
2022-12-11T17:46:19.913Z,16.88
2022-12-11T17:48:47.274Z,23.00
2022-12-11T17:51:15.231Z,23.52
2022-12-11T17:53:41.707Z,17.90
2022-12-11T17:56:08.733Z,16.90
2022-12-11T17:58:35.415Z,19.83
2022-12-11T18:01:07.430Z,15.07
2022-12-11T18:03:34.282Z,19.90
2022-12-11T18:06:05.303Z,16.73
2022-12-11T18:08:31.786Z,16.60
2022-12-11T18:11:08.607Z,18.52
2022-12-11T18:13:35.262Z,15.95
2022-12-11T18:16:07.945Z,20.17
2022-12-11T18:18:34.905Z,18.20
2022-12-11T18:21:01.678Z,20.35
2022-12-11T18:23:28.269Z,17.52
2022-12-11T18:25:55.288Z,15.80
2022-12-11T18:28:21.777Z,16.40
2022-12-11T18:30:48.459Z,16.55
2022-12-11T18:33:15.617Z,16.45
2022-12-11T18:35:42.466Z,16.33
2022-12-11T18:38:09.257Z,17.92
2022-12-11T18:40:35.789Z,16.35
2022-12-11T18:43:03.075Z,13.43
2022-12-11T18:45:29.945Z,12.20
2022-12-11T18:47:56.386Z,15.25
2022-12-11T18:50:23.083Z,15.55
2022-12-11T18:52:53.373Z,16.80
2022-12-11T18:55:19.896Z,15.60
2022-12-11T18:57:46.414Z,14.82
2022-12-11T19:00:13.630Z,14.27
2022-12-11T19:02:40.125Z,14.73
2022-12-11T19:05:06.807Z,18.73
2022-12-11T19:07:33.370Z,18.40
2022-12-11T19:09:59.883Z,17.33
2022-12-11T19:12:26.397Z,19.75
2022-12-11T19:14:52.998Z,16.65
2022-12-11T19:17:19.533Z,18.02
2022-12-11T19:19:46.164Z,17.35
2022-12-11T19:22:13.323Z,17.52
2022-12-11T19:24:39.941Z,14.83
2022-12-11T19:27:13.038Z,17.00
2022-12-11T19:29:40.197Z,17.75
2022-12-11T19:32:06.712Z,15.82
2022-12-11T19:34:33.267Z,18.63
2022-12-11T19:36:59.866Z,16.35
2022-12-11T19:39:26.465Z,17.40
2022-12-11T19:41:52.970Z,17.92
2022-12-11T19:44:19.493Z,14.02
2022-12-11T19:46:46.079Z,16.95
2022-12-11T19:49:12.918Z,17.98
2022-12-11T19:51:42.147Z,12.05
2022-12-11T19:54:12.279Z,17.55
2022-12-11T19:56:38.794Z,18.48
2022-12-11T19:59:07.858Z,17.77
2022-12-11T20:01:36.762Z,15.20
2022-12-11T20:04:09.292Z,16.27
2022-12-11T20:06:37.666Z,19.83
2022-12-11T20:09:05.861Z,19.42
2022-12-11T20:11:33.249Z,17.95
2022-12-11T20:14:00.079Z,13.75
2022-12-11T20:16:46.291Z,15.48
2022-12-11T20:19:13.653Z,15.10
2022-12-11T20:21:40.331Z,13.93
2022-12-11T20:24:07.078Z,14.60
2022-12-11T20:26:33.649Z,12.75
2022-12-11T20:29:00.115Z,18.15
2022-12-11T20:31:26.693Z,11.73
2022-12-11T20:33:56.434Z,12.52
2022-12-11T20:36:24.726Z,14.60
2022-12-11T20:38:52.084Z,15.27
2022-12-11T20:41:22.062Z,18.85
2022-12-11T20:43:48.805Z,18.13
2022-12-11T20:46:17.127Z,17.63
2022-12-11T20:48:45.181Z,16.25
2022-12-11T20:53:40.223Z,15.77
2022-12-11T20:56:15.199Z,13.95
2022-12-11T20:58:42.233Z,15.35
2022-12-11T21:01:15.132Z,11.90
2022-12-11T21:03:42.332Z,14.25
2022-12-11T21:06:17.981Z,12.20
2022-12-11T21:08:44.480Z,13.98
2022-12-11T21:11:11.101Z,14.82
2022-12-11T21:13:37.533Z,22.27
2022-12-11T21:16:05.785Z,11.25
2022-12-11T21:18:32.362Z,13.48
2022-12-11T21:20:58.937Z,10.77
2022-12-11T21:23:26.028Z,13.48
2022-12-11T21:25:53.036Z,11.80
2022-12-11T21:28:20.235Z,10.35
2022-12-11T21:30:47.057Z,12.18
2022-12-11T21:33:13.662Z,12.45
2022-12-11T21:35:40.256Z,15.07
2022-12-11T21:38:06.949Z,13.05
2022-12-11T21:40:33.913Z,14.13
2022-12-11T21:43:00.442Z,12.77
2022-12-11T21:48:14.236Z,12.07
2022-12-11T21:50:41.712Z,12.98
2022-12-11T21:53:08.361Z,13.60
2022-12-11T21:55:34.942Z,12.75
2022-12-11T21:58:01.479Z,13.90
2022-12-11T22:00:27.992Z,14.70
2022-12-11T22:02:54.763Z,14.48
2022-12-11T22:05:21.575Z,13.88
2022-12-11T22:07:48.183Z,20.15
2022-12-11T22:10:14.916Z,14.80
2022-12-11T22:12:41.454Z,14.38
2022-12-11T22:15:08.821Z,17.38
2022-12-11T22:17:35.389Z,15.02
2022-12-11T22:20:01.923Z,17.60
2022-12-11T22:22:28.461Z,19.38
2022-12-11T22:24:55.009Z,12.23
2022-12-11T22:27:23.874Z,15.77
2022-12-11T22:29:50.777Z,18.75
2022-12-11T22:32:17.239Z,13.85
2022-12-11T22:34:43.686Z,11.18
2022-12-11T22:37:10.208Z,11.98
2022-12-11T22:39:36.673Z,16.27
2022-12-11T22:42:04.217Z,13.35
2022-12-11T22:44:30.693Z,9.98
2022-12-11T22:46:57.162Z,12.90
2022-12-11T22:49:23.674Z,13.52
2022-12-11T22:51:50.445Z,16.70
2022-12-11T22:54:17.018Z,14.75
2022-12-11T22:56:43.649Z,10.60
2022-12-11T22:59:10.305Z,10.85
2022-12-11T23:01:36.862Z,13.85
2022-12-11T23:04:03.451Z,10.85
2022-12-11T23:06:30.170Z,12.85
2022-12-11T23:09:00.502Z,13.27
2022-12-11T23:11:35.779Z,14.05
2022-12-11T23:14:04.406Z,14.90
2022-12-11T23:16:31.233Z,14.45
2022-12-11T23:18:58.317Z,16.80
2022-12-11T23:21:26.316Z,16.10
2022-12-11T23:26:19.588Z,13.60
2022-12-11T23:28:47.236Z,10.15
2022-12-11T23:31:14.191Z,12.15
2022-12-11T23:33:40.839Z,14.37
2022-12-11T23:36:08.210Z,17.60
2022-12-11T23:38:34.862Z,16.77
2022-12-11T23:41:02.588Z,14.20
2022-12-11T23:43:29.466Z,17.05
2022-12-11T23:45:56.087Z,11.57
2022-12-11T23:48:22.726Z,14.05
2022-12-11T23:50:49.206Z,14.07
2022-12-11T23:53:15.895Z,15.63
2022-12-11T23:55:44.461Z,13.25
2022-12-11T23:58:11.549Z,12.15
